sensor_id;sensor_type;location;lat;lon;timestamp;pressure;altitude;pressure_sealevel;temperature
58909;BMP280;44690;48.154;17.102;2022-08-21T00:00:42;99171.84;;;18.10
58909;BMP280;44690;48.154;17.102;2022-08-21T00:02:20;99165.59;;;18.08
58909;BMP280;44690;48.154;17.102;2022-08-21T00:03:54;99167.84;;;18.13
58909;BMP280;44690;48.154;17.102;2022-08-21T00:05:29;99159.53;;;18.11
58909;BMP280;44690;48.154;17.102;2022-08-21T00:07:02;99163.53;;;18.08
58909;BMP280;44690;48.154;17.102;2022-08-21T00:08:34;99156.44;;;18.03
58909;BMP280;44690;48.154;17.102;2022-08-21T00:10:07;99151.59;;;18.02
58909;BMP280;44690;48.154;17.102;2022-08-21T00:11:40;99166.72;;;18.03
58909;BMP280;44690;48.154;17.102;2022-08-21T00:13:13;99163.09;;;17.98
58909;BMP280;44690;48.154;17.102;2022-08-21T00:14:49;99157.53;;;17.96
58909;BMP280;44690;48.154;17.102;2022-08-21T00:16:28;99156.56;;;17.90
58909;BMP280;44690;48.154;17.102;2022-08-21T00:18:00;99154.50;;;17.90
58909;BMP280;44690;48.154;17.102;2022-08-21T00:19:33;99157.38;;;17.92
58909;BMP280;44690;48.154;17.102;2022-08-21T00:21:05;99146.94;;;17.89
58909;BMP280;44690;48.154;17.102;2022-08-21T00:22:38;99151.78;;;17.90
58909;BMP280;44690;48.154;17.102;2022-08-21T00:24:12;99150.53;;;17.93
58909;BMP280;44690;48.154;17.102;2022-08-21T00:25:45;99145.50;;;17.88
58909;BMP280;44690;48.154;17.102;2022-08-21T00:27:17;99144.97;;;17.91
58909;BMP280;44690;48.154;17.102;2022-08-21T00:28:50;99151.97;;;17.94
58909;BMP280;44690;48.154;17.102;2022-08-21T00:30:25;99142.22;;;17.91
58909;BMP280;44690;48.154;17.102;2022-08-21T00:31:57;99135.25;;;17.88
58909;BMP280;44690;48.154;17.102;2022-08-21T00:33:31;99140.78;;;17.90
58909;BMP280;44690;48.154;17.102;2022-08-21T00:35:05;99140.72;;;17.88
58909;BMP280;44690;48.154;17.102;2022-08-21T00:36:39;99135.25;;;17.88
58909;BMP280;44690;48.154;17.102;2022-08-21T00:38:11;99147.00;;;17.91
58909;BMP280;44690;48.154;17.102;2022-08-21T00:39:44;99135.06;;;17.84
58909;BMP280;44690;48.154;17.102;2022-08-21T00:41:16;99141.97;;;17.85
58909;BMP280;44690;48.154;17.102;2022-08-21T00:43:14;99128.00;;;17.79
58909;BMP280;44690;48.154;17.102;2022-08-21T00:44:47;99138.28;;;17.78
58909;BMP280;44690;48.154;17.102;2022-08-21T00:46:21;99143.66;;;17.76
58909;BMP280;44690;48.154;17.102;2022-08-21T00:47:59;99117.47;;;17.73
58909;BMP280;44690;48.154;17.102;2022-08-21T00:49:31;99120.94;;;17.74
58909;BMP280;44690;48.154;17.102;2022-08-21T00:51:08;99121.53;;;17.72
58909;BMP280;44690;48.154;17.102;2022-08-21T00:52:43;99134.66;;;17.74
58909;BMP280;44690;48.154;17.102;2022-08-21T00:54:16;99132.09;;;17.78
58909;BMP280;44690;48.154;17.102;2022-08-21T00:55:51;99125.16;;;17.77
58909;BMP280;44690;48.154;17.102;2022-08-21T00:57:31;99121.16;;;17.80
58909;BMP280;44690;48.154;17.102;2022-08-21T00:59:05;99120.69;;;17.85
58909;BMP280;44690;48.154;17.102;2022-08-21T01:00:40;99116.66;;;17.86
58909;BMP280;44690;48.154;17.102;2022-08-21T01:02:13;99122.38;;;17.93
58909;BMP280;44690;48.154;17.102;2022-08-21T01:03:46;99117.78;;;17.97
58909;BMP280;44690;48.154;17.102;2022-08-21T01:05:21;99109.63;;;17.99
58909;BMP280;44690;48.154;17.102;2022-08-21T01:06:53;99121.47;;;18.04
58909;BMP280;44690;48.154;17.102;2022-08-21T01:08:27;99107.81;;;18.06
58909;BMP280;44690;48.154;17.102;2022-08-21T01:10:01;99111.97;;;18.07
58909;BMP280;44690;48.154;17.102;2022-08-21T01:11:35;99116.31;;;18.12
58909;BMP280;44690;48.154;17.102;2022-08-21T01:13:09;99115.59;;;18.11
58909;BMP280;44690;48.154;17.102;2022-08-21T01:14:42;99100.44;;;18.10
58909;BMP280;44690;48.154;17.102;2022-08-21T01:16:17;99111.44;;;18.10
58909;BMP280;44690;48.154;17.102;2022-08-21T01:17:51;99099.84;;;18.12
58909;BMP280;44690;48.154;17.102;2022-08-21T01:19:28;99105.34;;;18.12
58909;BMP280;44690;48.154;17.102;2022-08-21T01:21:22;99111.53;;;18.12
58909;BMP280;44690;48.154;17.102;2022-08-21T01:23:01;99094.91;;;18.08
58909;BMP280;44690;48.154;17.102;2022-08-21T01:24:34;99101.06;;;18.09
58909;BMP280;44690;48.154;17.102;2022-08-21T01:26:07;99093.69;;;18.13
58909;BMP280;44690;48.154;17.102;2022-08-21T01:27:39;99090.88;;;18.11
58909;BMP280;44690;48.154;17.102;2022-08-21T01:29:29;99089.22;;;18.04
58909;BMP280;44690;48.154;17.102;2022-08-21T01:31:05;99091.50;;;18.10
58909;BMP280;44690;48.154;17.102;2022-08-21T01:32:37;99104.44;;;18.07
58909;BMP280;44690;48.154;17.102;2022-08-21T01:34:10;99096.84;;;18.06
58909;BMP280;44690;48.154;17.102;2022-08-21T01:35:43;99090.56;;;18.03
58909;BMP280;44690;48.154;17.102;2022-08-21T01:37:15;99080.91;;;18.02
58909;BMP280;44690;48.154;17.102;2022-08-21T01:38:48;99092.53;;;18.01
58909;BMP280;44690;48.154;17.102;2022-08-21T01:40:21;99083.41;;;17.96
58909;BMP280;44690;48.154;17.102;2022-08-21T01:41:54;99090.47;;;18.01
58909;BMP280;44690;48.154;17.102;2022-08-21T01:43:26;99090.47;;;18.01
58909;BMP280;44690;48.154;17.102;2022-08-21T01:45:11;99099.59;;;18.06
58909;BMP280;44690;48.154;17.102;2022-08-21T01:46:43;99105.69;;;18.04
58909;BMP280;44690;48.154;17.102;2022-08-21T01:48:16;99097.38;;;18.02
58909;BMP280;44690;48.154;17.102;2022-08-21T01:49:48;99087.72;;;18.01
58909;BMP280;44690;48.154;17.102;2022-08-21T01:51:20;99077.38;;;18.00
58909;BMP280;44690;48.154;17.102;2022-08-21T01:52:53;99086.25;;;17.98
58909;BMP280;44690;48.154;17.102;2022-08-21T01:54:25;99088.75;;;17.92
58909;BMP280;44690;48.154;17.102;2022-08-21T01:55:58;99085.38;;;17.94
58909;BMP280;44690;48.154;17.102;2022-08-21T01:57:30;99087.34;;;17.91
58909;BMP280;44690;48.154;17.102;2022-08-21T01:59:02;99081.69;;;17.87
58909;BMP280;44690;48.154;17.102;2022-08-21T02:00:35;99077.44;;;17.84
58909;BMP280;44690;48.154;17.102;2022-08-21T02:02:08;99086.91;;;17.81
58909;BMP280;44690;48.154;17.102;2022-08-21T02:03:40;99073.88;;;17.81
58909;BMP280;44690;48.154;17.102;2022-08-21T02:05:13;99070.28;;;17.77
58909;BMP280;44690;48.154;17.102;2022-08-21T02:06:46;99072.41;;;17.78
58909;BMP280;44690;48.154;17.102;2022-08-21T02:08:18;99073.72;;;17.77
58909;BMP280;44690;48.154;17.102;2022-08-21T02:09:51;99083.22;;;17.74
58909;BMP280;44690;48.154;17.102;2022-08-21T02:11:24;99082.53;;;17.74
58909;BMP280;44690;48.154;17.102;2022-08-21T02:12:57;99068.81;;;17.74
58909;BMP280;44690;48.154;17.102;2022-08-21T02:14:30;99077.78;;;17.76
58909;BMP280;44690;48.154;17.102;2022-08-21T02:16:04;99064.69;;;17.75
58909;BMP280;44690;48.154;17.102;2022-08-21T02:17:37;99063.53;;;17.80
58909;BMP280;44690;48.154;17.102;2022-08-21T02:19:11;99057.34;;;17.79
58909;BMP280;44690;48.154;17.102;2022-08-21T02:20:46;99070.44;;;17.81
58909;BMP280;44690;48.154;17.102;2022-08-21T02:22:18;99067.78;;;17.83
58909;BMP280;44690;48.154;17.102;2022-08-21T02:23:51;99059.44;;;17.81
58909;BMP280;44690;48.154;17.102;2022-08-21T02:25:25;99051.22;;;17.81
58909;BMP280;44690;48.154;17.102;2022-08-21T02:26:57;99061.50;;;17.80
58909;BMP280;44690;48.154;17.102;2022-08-21T02:28:31;99057.88;;;17.76
58909;BMP280;44690;48.154;17.102;2022-08-21T02:30:03;99059.13;;;17.73
58909;BMP280;44690;48.154;17.102;2022-08-21T02:31:36;99058.25;;;17.68
58909;BMP280;44690;48.154;17.102;2022-08-21T02:33:09;99056.31;;;17.71
58909;BMP280;44690;48.154;17.102;2022-08-21T02:34:43;99049.25;;;17.66
58909;BMP280;44690;48.154;17.102;2022-08-21T02:36:16;99049.31;;;17.68
58909;BMP280;44690;48.154;17.102;2022-08-21T02:37:50;99054.03;;;17.65
58909;BMP280;44690;48.154;17.102;2022-08-21T02:39:23;99050.50;;;17.63
58909;BMP280;44690;48.154;17.102;2022-08-21T02:40:58;99044.88;;;17.61
58909;BMP280;44690;48.154;17.102;2022-08-21T02:42:30;99048.38;;;17.61
58909;BMP280;44690;48.154;17.102;2022-08-21T02:44:03;99051.97;;;17.66
58909;BMP280;44690;48.154;17.102;2022-08-21T02:45:35;99046.50;;;17.66
58909;BMP280;44690;48.154;17.102;2022-08-21T02:47:08;99054.72;;;17.66
58909;BMP280;44690;48.154;17.102;2022-08-21T02:48:41;99043.75;;;17.66
58909;BMP280;44690;48.154;17.102;2022-08-21T02:50:19;99048.63;;;17.67
58909;BMP280;44690;48.154;17.102;2022-08-21T02:51:51;99050.81;;;17.71
58909;BMP280;44690;48.154;17.102;2022-08-21T02:53:24;99044.81;;;17.74
58909;BMP280;44690;48.154;17.102;2022-08-21T02:54:56;99054.97;;;17.72
58909;BMP280;44690;48.154;17.102;2022-08-21T02:56:29;99072.16;;;17.72
58909;BMP280;44690;48.154;17.102;2022-08-21T02:58:04;99051.69;;;17.75
58909;BMP280;44690;48.154;17.102;2022-08-21T02:59:37;99046.91;;;17.76
58909;BMP280;44690;48.154;17.102;2022-08-21T03:01:09;99055.50;;;17.84
58909;BMP280;44690;48.154;17.102;2022-08-21T03:02:42;99048.59;;;17.83
58909;BMP280;44690;48.154;17.102;2022-08-21T03:04:14;99062.47;;;17.87
58909;BMP280;44690;48.154;17.102;2022-08-21T03:05:47;99058.38;;;17.88
58909;BMP280;44690;48.154;17.102;2022-08-21T03:07:20;99052.97;;;17.90
58909;BMP280;44690;48.154;17.102;2022-08-21T03:08:52;99048.63;;;17.85
58909;BMP280;44690;48.154;17.102;2022-08-21T03:10:25;99043.84;;;17.85
58909;BMP280;44690;48.154;17.102;2022-08-21T03:11:57;99048.59;;;17.83
58909;BMP280;44690;48.154;17.102;2022-08-21T03:13:29;99047.94;;;17.84
58909;BMP280;44690;48.154;17.102;2022-08-21T03:15:05;99050.69;;;17.84
58909;BMP280;44690;48.154;17.102;2022-08-21T03:16:38;99050.50;;;17.80
58909;BMP280;44690;48.154;17.102;2022-08-21T03:18:12;99049.28;;;17.83
58909;BMP280;44690;48.154;17.102;2022-08-21T03:19:44;99063.72;;;17.84
58909;BMP280;44690;48.154;17.102;2022-08-21T03:21:17;99047.94;;;17.84
58909;BMP280;44690;48.154;17.102;2022-08-21T03:22:52;99055.00;;;17.90
58909;BMP280;44690;48.154;17.102;2022-08-21T03:24:24;99043.84;;;17.85
58909;BMP280;44690;48.154;17.102;2022-08-21T03:25:57;99044.13;;;17.92
58909;BMP280;44690;48.154;17.102;2022-08-21T03:27:30;99042.16;;;17.94
58909;BMP280;44690;48.154;17.102;2022-08-21T03:29:02;99039.50;;;17.96
58909;BMP280;44690;48.154;17.102;2022-08-21T03:30:35;99045.59;;;17.95
58909;BMP280;44690;48.154;17.102;2022-08-21T03:32:07;99040.03;;;17.93
58909;BMP280;44690;48.154;17.102;2022-08-21T03:33:41;99028.19;;;17.88
58909;BMP280;44690;48.154;17.102;2022-08-21T03:35:14;99046.25;;;17.93
58909;BMP280;44690;48.154;17.102;2022-08-21T03:36:46;99050.88;;;17.89
58909;BMP280;44690;48.154;17.102;2022-08-21T03:38:19;99053.06;;;17.92
58909;BMP280;44690;48.154;17.102;2022-08-21T03:39:57;99047.41;;;17.88
58909;BMP280;44690;48.154;17.102;2022-08-21T03:41:30;99054.94;;;17.88
58909;BMP280;44690;48.154;17.102;2022-08-21T03:43:02;99064.59;;;17.89
58909;BMP280;44690;48.154;17.102;2022-08-21T03:44:35;99065.38;;;17.91
58909;BMP280;44690;48.154;17.102;2022-08-21T03:46:07;99058.56;;;17.92
58909;BMP280;44690;48.154;17.102;2022-08-21T03:48:00;99048.91;;;17.91
58909;BMP280;44690;48.154;17.102;2022-08-21T03:49:33;99052.34;;;17.92
58909;BMP280;44690;48.154;17.102;2022-08-21T03:51:05;99054.56;;;17.95
58909;BMP280;44690;48.154;17.102;2022-08-21T03:52:38;99062.00;;;17.93
58909;BMP280;44690;48.154;17.102;2022-08-21T03:54:10;99065.44;;;17.93
58909;BMP280;44690;48.154;17.102;2022-08-21T03:55:45;99063.41;;;17.94
58909;BMP280;44690;48.154;17.102;2022-08-21T03:57:18;99072.44;;;17.96
58909;BMP280;44690;48.154;17.102;2022-08-21T03:58:51;99068.97;;;17.96
58909;BMP280;44690;48.154;17.102;2022-08-21T04:00:24;99076.03;;;18.01
58909;BMP280;44690;48.154;17.102;2022-08-21T04:01:59;99066.47;;;18.02
58909;BMP280;44690;48.154;17.102;2022-08-21T04:03:33;99080.28;;;18.04
58909;BMP280;44690;48.154;17.102;2022-08-21T04:05:07;99068.03;;;18.07
58909;BMP280;44690;48.154;17.102;2022-08-21T04:06:39;99063.25;;;18.07
58909;BMP280;44690;48.154;17.102;2022-08-21T04:08:13;99068.66;;;18.05
58909;BMP280;44690;48.154;17.102;2022-08-21T04:09:45;99071.34;;;18.03
58909;BMP280;44690;48.154;17.102;2022-08-21T04:11:19;99073.38;;;18.03
58909;BMP280;44690;48.154;17.102;2022-08-21T04:12:52;99066.31;;;17.98
58909;BMP280;44690;48.154;17.102;2022-08-21T04:14:24;99064.19;;;17.96
58909;BMP280;44690;48.154;17.102;2022-08-21T04:15:57;99077.94;;;17.96
58909;BMP280;44690;48.154;17.102;2022-08-21T04:17:30;99069.69;;;17.96
58909;BMP280;44690;48.154;17.102;2022-08-21T04:19:03;99083.97;;;17.93
58909;BMP280;44690;48.154;17.102;2022-08-21T04:20:35;99075.09;;;17.94
58909;BMP280;44690;48.154;17.102;2022-08-21T04:22:07;99085.88;;;17.90
58909;BMP280;44690;48.154;17.102;2022-08-21T04:23:40;99076.94;;;17.90
58909;BMP280;44690;48.154;17.102;2022-08-21T04:25:14;99080.25;;;17.86
58909;BMP280;44690;48.154;17.102;2022-08-21T04:26:46;99083.09;;;17.88
58909;BMP280;44690;48.154;17.102;2022-08-21T04:28:20;99085.19;;;17.90
58909;BMP280;44690;48.154;17.102;2022-08-21T04:29:54;99081.06;;;17.89
58909;BMP280;44690;48.154;17.102;2022-08-21T04:31:26;99100.34;;;17.91
58909;BMP280;44690;48.154;17.102;2022-08-21T04:33:00;99105.38;;;17.96
58909;BMP280;44690;48.154;17.102;2022-08-21T04:34:32;99090.41;;;17.99
58909;BMP280;44690;48.154;17.102;2022-08-21T04:36:05;99102.88;;;18.02
58909;BMP280;44690;48.154;17.102;2022-08-21T04:37:38;99107.75;;;18.04
58909;BMP280;44690;48.154;17.102;2022-08-21T04:39:13;99101.25;;;18.13
58909;BMP280;44690;48.154;17.102;2022-08-21T04:40:47;99101.25;;;18.13
58909;BMP280;44690;48.154;17.102;2022-08-21T04:42:20;99099.38;;;18.17
58909;BMP280;44690;48.154;17.102;2022-08-21T04:43:52;99109.00;;;18.18
58909;BMP280;44690;48.154;17.102;2022-08-21T04:45:34;99106.44;;;18.23
58909;BMP280;44690;48.154;17.102;2022-08-21T04:47:06;99112.00;;;18.25
58909;BMP280;44690;48.154;17.102;2022-08-21T04:48:38;99102.50;;;18.28
58909;BMP280;44690;48.154;17.102;2022-08-21T04:50:11;99112.31;;;18.33
58909;BMP280;44690;48.154;17.102;2022-08-21T04:51:57;99115.91;;;18.37
58909;BMP280;44690;48.154;17.102;2022-08-21T04:53:47;99108.47;;;18.40
58909;BMP280;44690;48.154;17.102;2022-08-21T04:55:20;99127.09;;;18.41
58909;BMP280;44690;48.154;17.102;2022-08-21T04:56:56;99105.88;;;18.44
58909;BMP280;44690;48.154;17.102;2022-08-21T04:58:32;99096.94;;;18.43
58909;BMP280;44690;48.154;17.102;2022-08-21T05:00:05;99103.44;;;18.52
58909;BMP280;44690;48.154;17.102;2022-08-21T05:01:45;99105.88;;;18.62
58909;BMP280;44690;48.154;17.102;2022-08-21T05:03:17;99105.97;;;18.64
58909;BMP280;44690;48.154;17.102;2022-08-21T05:04:52;99102.53;;;18.63
58909;BMP280;44690;48.154;17.102;2022-08-21T05:06:30;99105.16;;;18.61
58909;BMP280;44690;48.154;17.102;2022-08-21T05:08:04;99097.63;;;18.62
58909;BMP280;44690;48.154;17.102;2022-08-21T05:09:38;99107.44;;;18.67
58909;BMP280;44690;48.154;17.102;2022-08-21T05:11:11;99109.13;;;18.94
58909;BMP280;44690;48.154;17.102;2022-08-21T05:12:44;99114.38;;;19.25
58909;BMP280;44690;48.154;17.102;2022-08-21T05:14:17;99122.00;;;19.47
58909;BMP280;44690;48.154;17.102;2022-08-21T05:15:49;99114.09;;;19.98
58909;BMP280;44690;48.154;17.102;2022-08-21T05:17:21;99115.53;;;20.45
58909;BMP280;44690;48.154;17.102;2022-08-21T05:18:54;99109.53;;;20.74
58909;BMP280;44690;48.154;17.102;2022-08-21T05:20:27;99114.34;;;21.24
58909;BMP280;44690;48.154;17.102;2022-08-21T05:22:00;99124.09;;;21.83
58909;BMP280;44690;48.154;17.102;2022-08-21T05:23:33;99120.59;;;22.40
58909;BMP280;44690;48.154;17.102;2022-08-21T05:25:06;99119.72;;;22.99
58909;BMP280;44690;48.154;17.102;2022-08-21T05:26:41;99113.22;;;23.63
58909;BMP280;44690;48.154;17.102;2022-08-21T05:28:17;99127.22;;;24.17
58909;BMP280;44690;48.154;17.102;2022-08-21T05:29:50;99126.34;;;24.57
58909;BMP280;44690;48.154;17.102;2022-08-21T05:31:23;99123.88;;;24.81
58909;BMP280;44690;48.154;17.102;2022-08-21T05:32:59;99132.44;;;25.03
58909;BMP280;44690;48.154;17.102;2022-08-21T05:34:32;99115.78;;;25.05
58909;BMP280;44690;48.154;17.102;2022-08-21T05:36:04;99121.84;;;24.88
58909;BMP280;44690;48.154;17.102;2022-08-21T05:37:37;99119.03;;;24.82
58909;BMP280;44690;48.154;17.102;2022-08-21T05:39:09;99115.25;;;25.23
58909;BMP280;44690;48.154;17.102;2022-08-21T05:40:41;99120.50;;;25.67
58909;BMP280;44690;48.154;17.102;2022-08-21T05:42:15;99116.47;;;25.89
58909;BMP280;44690;48.154;17.102;2022-08-21T05:43:47;99129.75;;;25.98
58909;BMP280;44690;48.154;17.102;2022-08-21T05:45:23;99122.63;;;25.77
58909;BMP280;44690;48.154;17.102;2022-08-21T05:47:15;99124.34;;;25.30
58909;BMP280;44690;48.154;17.102;2022-08-21T05:48:47;99126.84;;;24.99
58909;BMP280;44690;48.154;17.102;2022-08-21T05:50:19;99125.19;;;24.76
58909;BMP280;44690;48.154;17.102;2022-08-21T05:51:52;99127.19;;;24.69
58909;BMP280;44690;48.154;17.102;2022-08-21T05:53:24;99123.31;;;24.95
58909;BMP280;44690;48.154;17.102;2022-08-21T05:54:57;99138.19;;;25.26
58909;BMP280;44690;48.154;17.102;2022-08-21T05:56:29;99135.81;;;25.72
58909;BMP280;44690;48.154;17.102;2022-08-21T05:58:02;99120.09;;;26.15
58909;BMP280;44690;48.154;17.102;2022-08-21T05:59:34;99126.53;;;26.59
58909;BMP280;44690;48.154;17.102;2022-08-21T06:01:06;99117.59;;;27.01
58909;BMP280;44690;48.154;17.102;2022-08-21T06:02:40;99138.50;;;27.26
58909;BMP280;44690;48.154;17.102;2022-08-21T06:04:13;99127.38;;;27.44
58909;BMP280;44690;48.154;17.102;2022-08-21T06:05:46;99109.22;;;27.61
58909;BMP280;44690;48.154;17.102;2022-08-21T06:07:18;99125.22;;;27.93
58909;BMP280;44690;48.154;17.102;2022-08-21T06:08:52;99118.91;;;28.01
58909;BMP280;44690;48.154;17.102;2022-08-21T06:10:25;99116.16;;;27.89
58909;BMP280;44690;48.154;17.102;2022-08-21T06:11:57;99114.09;;;27.61
58909;BMP280;44690;48.154;17.102;2022-08-21T06:13:29;99124.56;;;27.04
58909;BMP280;44690;48.154;17.102;2022-08-21T06:15:02;99122.38;;;26.58
58909;BMP280;44690;48.154;17.102;2022-08-21T06:16:34;99123.06;;;26.56
58909;BMP280;44690;48.154;17.102;2022-08-21T06:18:07;99125.19;;;26.68
58909;BMP280;44690;48.154;17.102;2022-08-21T06:19:39;99123.84;;;26.83
58909;BMP280;44690;48.154;17.102;2022-08-21T06:21:11;99121.06;;;26.77
58909;BMP280;44690;48.154;17.102;2022-08-21T06:22:45;99119.66;;;26.82
58909;BMP280;44690;48.154;17.102;2022-08-21T06:24:17;99121.75;;;26.83
58909;BMP280;44690;48.154;17.102;2022-08-21T06:25:50;99120.38;;;26.90
58909;BMP280;44690;48.154;17.102;2022-08-21T06:27:22;99121.78;;;26.89
58909;BMP280;44690;48.154;17.102;2022-08-21T06:28:57;99123.88;;;27.09
58909;BMP280;44690;48.154;17.102;2022-08-21T06:30:31;99119.00;;;27.12
58909;BMP280;44690;48.154;17.102;2022-08-21T06:32:04;99127.38;;;27.38
58909;BMP280;44690;48.154;17.102;2022-08-21T06:33:41;99139.19;;;27.81
58909;BMP280;44690;48.154;17.102;2022-08-21T06:35:14;99126.53;;;28.15
58909;BMP280;44690;48.154;17.102;2022-08-21T06:36:46;99134.00;;;28.63
58909;BMP280;44690;48.154;17.102;2022-08-21T06:38:18;99133.84;;;28.91
58909;BMP280;44690;48.154;17.102;2022-08-21T06:39:51;99136.41;;;29.22
58909;BMP280;44690;48.154;17.102;2022-08-21T06:41:24;99137.56;;;29.49
58909;BMP280;44690;48.154;17.102;2022-08-21T06:42:58;99140.91;;;29.64
58909;BMP280;44690;48.154;17.102;2022-08-21T06:44:37;99136.75;;;29.63
58909;BMP280;44690;48.154;17.102;2022-08-21T06:46:09;99134.63;;;29.61
58909;BMP280;44690;48.154;17.102;2022-08-21T06:47:41;99140.13;;;29.69
58909;BMP280;44690;48.154;17.102;2022-08-21T06:49:14;99128.59;;;30.02
58909;BMP280;44690;48.154;17.102;2022-08-21T06:50:52;99135.09;;;30.41
58909;BMP280;44690;48.154;17.102;2022-08-21T06:52:24;99139.59;;;30.71
58909;BMP280;44690;48.154;17.102;2022-08-21T06:53:57;99151.75;;;30.53
58909;BMP280;44690;48.154;17.102;2022-08-21T06:55:31;99140.34;;;30.14
58909;BMP280;44690;48.154;17.102;2022-08-21T06:57:03;99142.13;;;29.81
58909;BMP280;44690;48.154;17.102;2022-08-21T06:58:35;99125.91;;;29.94
58909;BMP280;44690;48.154;17.102;2022-08-21T07:00:08;99136.81;;;30.16
58909;BMP280;44690;48.154;17.102;2022-08-21T07:01:42;99122.38;;;29.97
58909;BMP280;44690;48.154;17.102;2022-08-21T07:03:24;99129.19;;;29.47
58909;BMP280;44690;48.154;17.102;2022-08-21T07:04:57;99128.94;;;28.90
58909;BMP280;44690;48.154;17.102;2022-08-21T07:06:30;99133.28;;;28.68
58909;BMP280;44690;48.154;17.102;2022-08-21T07:08:05;99136.19;;;28.38
58909;BMP280;44690;48.154;17.102;2022-08-21T07:09:37;99132.88;;;27.91
58909;BMP280;44690;48.154;17.102;2022-08-21T07:11:16;99138.50;;;27.56
58909;BMP280;44690;48.154;17.102;2022-08-21T07:12:50;99132.25;;;27.60
58909;BMP280;44690;48.154;17.102;2022-08-21T07:14:32;99138.47;;;27.93
58909;BMP280;44690;48.154;17.102;2022-08-21T07:16:05;99131.28;;;28.47
58909;BMP280;44690;48.154;17.102;2022-08-21T07:17:38;99124.97;;;28.50
58909;BMP280;44690;48.154;17.102;2022-08-21T07:19:10;99127.09;;;28.46
58909;BMP280;44690;48.154;17.102;2022-08-21T07:20:43;99131.81;;;28.80
58909;BMP280;44690;48.154;17.102;2022-08-21T07:22:18;99135.03;;;29.17
58909;BMP280;44690;48.154;17.102;2022-08-21T07:23:51;99127.63;;;28.83
58909;BMP280;44690;48.154;17.102;2022-08-21T07:25:24;99130.56;;;28.54
58909;BMP280;44690;48.154;17.102;2022-08-21T07:26:57;99136.97;;;28.30
58909;BMP280;44690;48.154;17.102;2022-08-21T07:28:31;99123.63;;;28.47
58909;BMP280;44690;48.154;17.102;2022-08-21T07:30:05;99115.06;;;28.78
58909;BMP280;44690;48.154;17.102;2022-08-21T07:31:37;99116.91;;;29.16
58909;BMP280;44690;48.154;17.102;2022-08-21T07:33:11;99124.22;;;29.56
58909;BMP280;44690;48.154;17.102;2022-08-21T07:34:43;99112.31;;;29.55
58909;BMP280;44690;48.154;17.102;2022-08-21T07:36:16;99110.13;;;29.66
58909;BMP280;44690;48.154;17.102;2022-08-21T07:37:49;99114.81;;;29.85
58909;BMP280;44690;48.154;17.102;2022-08-21T07:39:22;99102.47;;;30.21
58909;BMP280;44690;48.154;17.102;2022-08-21T07:40:55;99094.47;;;30.44
58909;BMP280;44690;48.154;17.102;2022-08-21T07:42:28;99102.25;;;30.40
58909;BMP280;44690;48.154;17.102;2022-08-21T07:44:00;99108.47;;;30.44
58909;BMP280;44690;48.154;17.102;2022-08-21T07:45:33;99099.44;;;30.40
58909;BMP280;44690;48.154;17.102;2022-08-21T07:47:06;99096.16;;;30.21
58909;BMP280;44690;48.154;17.102;2022-08-21T07:48:38;99093.59;;;30.05
58909;BMP280;44690;48.154;17.102;2022-08-21T07:50:12;99101.63;;;29.76
58909;BMP280;44690;48.154;17.102;2022-08-21T07:51:45;99105.88;;;29.71
58909;BMP280;44690;48.154;17.102;2022-08-21T07:53:17;99101.75;;;29.64
58909;BMP280;44690;48.154;17.102;2022-08-21T07:54:49;99092.81;;;29.51
58909;BMP280;44690;48.154;17.102;2022-08-21T07:56:24;99078.06;;;29.59
58909;BMP280;44690;48.154;17.102;2022-08-21T07:57:57;99080.59;;;29.81
58909;BMP280;44690;48.154;17.102;2022-08-21T07:59:29;99074.22;;;29.89
58909;BMP280;44690;48.154;17.102;2022-08-21T08:01:02;99076.56;;;29.68
58909;BMP280;44690;48.154;17.102;2022-08-21T08:02:34;99076.69;;;29.56
58909;BMP280;44690;48.154;17.102;2022-08-21T08:04:07;99085.97;;;29.34
58909;BMP280;44690;48.154;17.102;2022-08-21T08:05:39;99079.13;;;29.19
58909;BMP280;44690;48.154;17.102;2022-08-21T08:07:11;99087.00;;;28.98
58909;BMP280;44690;48.154;17.102;2022-08-21T08:08:44;99070.44;;;28.69
58909;BMP280;44690;48.154;17.102;2022-08-21T08:10:17;99076.78;;;28.58
58909;BMP280;44690;48.154;17.102;2022-08-21T08:11:50;99072.69;;;28.47
58909;BMP280;44690;48.154;17.102;2022-08-21T08:13:22;99088.00;;;28.52
58909;BMP280;44690;48.154;17.102;2022-08-21T08:14:58;99088.03;;;28.42
58909;BMP280;44690;48.154;17.102;2022-08-21T08:16:31;99068.56;;;28.33
58909;BMP280;44690;48.154;17.102;2022-08-21T08:18:04;99097.78;;;28.53
58909;BMP280;44690;48.154;17.102;2022-08-21T08:19:36;99069.19;;;28.44
58909;BMP280;44690;48.154;17.102;2022-08-21T08:21:09;99076.38;;;28.09
58909;BMP280;44690;48.154;17.102;2022-08-21T08:22:42;99074.41;;;27.58
58909;BMP280;44690;48.154;17.102;2022-08-21T08:24:21;99082.09;;;27.30
58909;BMP280;44690;48.154;17.102;2022-08-21T08:25:53;99084.91;;;27.25
58909;BMP280;44690;48.154;17.102;2022-08-21T08:27:25;99091.88;;;27.41
58909;BMP280;44690;48.154;17.102;2022-08-21T08:28:58;99091.84;;;27.37
58909;BMP280;44690;48.154;17.102;2022-08-21T08:30:30;99094.63;;;27.02
58909;BMP280;44690;48.154;17.102;2022-08-21T08:32:05;99091.06;;;26.65
58909;BMP280;44690;48.154;17.102;2022-08-21T08:33:39;99095.16;;;26.38
58909;BMP280;44690;48.154;17.102;2022-08-21T08:35:12;99105.47;;;26.05
58909;BMP280;44690;48.154;17.102;2022-08-21T08:36:44;99112.31;;;25.96
58909;BMP280;44690;48.154;17.102;2022-08-21T08:38:19;99116.41;;;25.78
58909;BMP280;44690;48.154;17.102;2022-08-21T08:39:55;99114.16;;;25.55
58909;BMP280;44690;48.154;17.102;2022-08-21T08:41:28;99106.22;;;25.21
58909;BMP280;44690;48.154;17.102;2022-08-21T08:43:02;99111.59;;;25.02
58909;BMP280;44690;48.154;17.102;2022-08-21T08:44:34;99103.63;;;24.68
58909;BMP280;44690;48.154;17.102;2022-08-21T08:46:11;99117.94;;;24.51
58909;BMP280;44690;48.154;17.102;2022-08-21T08:47:48;99120.47;;;24.30
58909;BMP280;44690;48.154;17.102;2022-08-21T08:49:31;99125.69;;;24.08
58909;BMP280;44690;48.154;17.102;2022-08-21T08:51:14;99111.13;;;24.07
58909;BMP280;44690;48.154;17.102;2022-08-21T08:52:53;99123.59;;;24.06